createdAt,value
2024-04-01T00:00:53.874Z,76.7732
2024-04-01T00:01:54.825Z,77.2804
2024-04-01T00:02:55.808Z,77.6483
2024-04-01T00:03:56.945Z,77.4588
2024-04-01T00:04:58.045Z,77.3077
2024-04-01T00:05:58.991Z,77.7145
2024-04-01T00:06:59.967Z,78.0298
2024-04-01T00:08:01.072Z,78.2494
2024-04-01T00:09:02.207Z,78.7081
2024-04-01T00:10:03.308Z,79.0827
2024-04-01T00:11:04.454Z,79.3534
2024-04-01T00:12:05.554Z,79.4473
2024-04-01T00:13:06.514Z,79.8426
2024-04-01T00:14:07.481Z,80.1980
2024-04-01T00:15:08.594Z,80.5044
2024-04-01T00:16:09.511Z,80.7271
2024-04-01T00:17:10.447Z,80.8220
2024-04-01T00:18:11.432Z,80.4102
2024-04-01T00:19:12.455Z,80.6968
2024-04-01T00:20:13.410Z,80.7245
2024-04-01T00:21:14.413Z,80.3139
2024-04-01T00:22:15.514Z,80.2163
2024-04-01T00:23:16.614Z,80.4995
2024-04-01T00:24:17.592Z,80.1755
2024-04-01T00:25:18.540Z,80.0829
2024-04-01T00:26:19.642Z,80.2018
2024-04-01T00:27:20.605Z,80.0257
2024-04-01T00:28:21.635Z,80.3510
2024-04-01T00:29:22.714Z,80.4202
2024-04-01T00:30:23.806Z,80.5827
2024-04-01T00:31:24.769Z,80.8715
2024-04-01T00:32:25.735Z,80.9080
2024-04-01T00:33:26.677Z,81.1643
2024-04-01T00:34:33.246Z,81.5455
2024-04-01T00:35:29.835Z,81.2141
2024-04-01T00:36:30.845Z,81.2500
2024-04-01T00:37:31.974Z,81.0986
2024-04-01T00:38:33.092Z,81.4858
2024-04-01T00:39:34.230Z,81.8313
2024-04-01T00:40:35.334Z,82.0844
2024-04-01T00:41:36.445Z,82.3708
2024-04-01T00:42:37.386Z,82.5801
2024-04-01T00:43:38.393Z,82.6649
2024-04-01T00:44:39.314Z,82.8441
2024-04-01T00:45:40.317Z,82.7165
2024-04-01T00:46:41.418Z,82.3979
2024-04-01T00:47:42.343Z,82.8836
2024-04-01T00:48:43.384Z,83.2167
2024-04-01T00:49:44.452Z,83.0344
2024-04-01T00:50:45.400Z,83.2265
2024-04-01T00:51:46.370Z,83.4670
2024-04-01T00:52:47.362Z,82.9604
2024-04-01T00:53:48.323Z,83.1471
2024-04-01T00:54:49.409Z,83.0693
2024-04-01T00:55:50.353Z,83.2339
2024-04-01T00:56:51.320Z,83.1533
2024-04-01T00:57:52.452Z,82.9086
2024-04-01T00:58:53.545Z,82.6564
2024-04-01T00:59:54.493Z,82.8207
2024-04-01T01:00:55.481Z,82.5534
2024-04-01T01:01:56.421Z,82.3297
2024-04-01T01:02:57.406Z,82.1165
2024-04-01T01:03:58.528Z,82.0227
2024-04-01T01:04:59.640Z,81.8068
2024-04-01T01:06:00.770Z,81.7476
2024-04-01T01:07:02.699Z,81.6349
2024-04-01T01:08:03.981Z,82.0485
2024-04-01T01:09:04.900Z,82.1042
2024-04-01T01:10:05.906Z,81.8477
2024-04-01T01:11:07.015Z,81.7108
2024-04-01T01:12:08.120Z,81.8904
2024-04-01T01:13:09.242Z,81.7627
2024-04-01T01:14:10.184Z,81.5725
2024-04-01T01:15:11.157Z,81.2984
2024-04-01T01:16:12.106Z,81.4874
2024-04-01T01:17:13.082Z,81.1132
2024-04-01T01:18:14.032Z,80.6287
2024-04-01T01:19:15.010Z,80.8873
2024-04-01T01:20:15.974Z,81.2147
2024-04-01T01:21:16.926Z,81.1825
2024-04-01T01:22:18.683Z,81.2617
2024-04-01T01:23:19.801Z,81.4152
2024-04-01T01:24:20.927Z,81.5607
2024-04-01T01:25:21.896Z,81.9279
2024-04-01T01:26:22.857Z,81.9287
2024-04-01T01:27:23.890Z,81.6485
2024-04-01T01:28:24.851Z,81.2214
2024-04-01T01:29:25.904Z,80.9062
2024-04-01T01:30:27.044Z,80.9325
2024-04-01T01:31:28.136Z,79.7088
2024-04-01T01:32:29.064Z,78.9840
2024-04-01T01:33:30.099Z,79.2675
2024-04-01T01:34:31.155Z,79.4821
2024-04-01T01:35:32.113Z,79.7610
2024-04-01T01:36:33.078Z,79.8655
2024-04-01T01:37:34.217Z,79.7470
2024-04-01T01:38:35.145Z,79.9143
2024-04-01T01:39:36.125Z,80.0306
2024-04-01T01:40:37.205Z,80.0623
2024-04-01T01:41:38.163Z,80.4490
2024-04-01T01:42:39.106Z,80.6635
2024-04-01T01:43:40.061Z,80.9895
2024-04-01T01:44:41.087Z,81.4429
2024-04-01T01:45:42.054Z,81.9983
2024-04-01T01:46:42.995Z,82.1466
2024-04-01T01:47:43.930Z,82.4627
2024-04-01T01:48:44.921Z,82.8614
2024-04-01T01:49:46.044Z,83.2893
2024-04-01T01:50:47.012Z,83.5443
2024-04-01T01:51:47.968Z,83.9094
2024-04-01T01:52:49.057Z,84.2607
2024-04-01T01:53:49.979Z,84.3642
2024-04-01T01:54:50.980Z,84.2126
2024-04-01T01:55:51.946Z,84.3355
2024-04-01T01:56:52.923Z,84.5549
2024-04-01T01:57:53.885Z,84.0083
2024-04-01T01:58:54.844Z,83.6078
2024-04-01T01:59:55.813Z,83.4781
2024-04-01T02:00:56.752Z,83.2703
2024-04-01T02:01:57.981Z,82.5293
2024-04-01T02:02:58.987Z,82.8426
2024-04-01T02:04:00.127Z,82.6141
2024-04-01T02:05:01.087Z,81.8360
2024-04-01T02:06:02.062Z,80.5007
2024-04-01T02:07:02.973Z,79.7066
2024-04-01T02:08:04.007Z,79.0215
2024-04-01T02:09:04.909Z,78.6673
2024-04-01T02:10:05.907Z,78.8715
2024-04-01T02:11:07.001Z,78.3528
2024-04-01T02:12:07.959Z,78.2285
2024-04-01T02:13:08.934Z,78.6016
2024-04-01T02:14:10.058Z,78.1795
2024-04-01T02:15:11.152Z,78.2964
2024-04-01T02:16:12.118Z,77.7713
2024-04-01T02:17:13.106Z,78.0603
2024-04-01T02:18:14.197Z,78.1652
2024-04-01T02:19:15.155Z,78.0275
2024-04-01T02:20:16.121Z,77.0266
2024-04-01T02:21:17.228Z,76.2456
2024-04-01T02:22:18.152Z,76.2000
2024-04-01T02:23:19.159Z,76.3121
2024-04-01T02:24:20.225Z,75.8440
2024-04-01T02:25:21.187Z,75.6306
2024-04-01T02:26:22.230Z,75.2798
2024-04-01T02:27:23.338Z,74.8840
2024-04-01T02:28:24.472Z,74.6872
2024-04-01T02:29:25.710Z,75.1328
2024-04-01T02:30:26.729Z,74.8980
2024-04-01T02:31:27.872Z,74.6126
2024-04-01T02:32:28.923Z,74.5678
2024-04-01T02:33:29.893Z,73.9169
2024-04-01T02:34:30.880Z,74.0600
2024-04-01T02:35:31.953Z,74.1640
2024-04-01T02:36:34.722Z,74.5526
2024-04-01T02:37:33.740Z,74.2056
2024-04-01T02:38:34.685Z,74.2161
2024-04-01T02:39:35.606Z,74.2109
2024-04-01T02:40:36.606Z,74.7007
2024-04-01T02:41:37.721Z,73.9632
2024-04-01T02:42:38.695Z,74.3850
2024-04-01T02:43:39.640Z,74.7252
2024-04-01T02:44:40.763Z,74.6143
2024-04-01T02:45:41.888Z,74.5224
2024-04-01T02:46:42.833Z,73.9594
2024-04-01T02:47:43.804Z,73.4779
2024-04-01T02:48:44.733Z,73.9592
2024-04-01T02:49:45.731Z,74.0510
2024-04-01T02:50:46.781Z,74.0354
2024-04-01T02:51:47.713Z,74.8145
2024-04-01T02:52:48.778Z,74.1541
2024-04-01T02:53:49.891Z,73.7468
2024-04-01T02:54:51.006Z,74.5698
2024-04-01T02:55:51.964Z,74.6083
2024-04-01T02:56:52.924Z,73.8836
2024-04-01T02:57:53.862Z,74.9476
2024-04-01T02:58:54.846Z,74.6468
2024-04-01T02:59:55.963Z,75.7599
2024-04-01T03:00:57.059Z,75.9019
2024-04-01T03:01:58.050Z,76.1848
2024-04-01T03:02:59.024Z,76.9150
2024-04-01T03:04:00.060Z,77.7157
2024-04-01T03:05:01.038Z,78.3118
2024-04-01T03:06:02.040Z,78.4617
2024-04-01T03:07:03.011Z,79.0103
2024-04-01T03:08:04.959Z,79.2181
2024-04-01T03:09:06.044Z,79.0731
2024-04-01T03:10:07.166Z,79.5626
2024-04-01T03:11:08.130Z,79.7948
2024-04-01T03:12:09.072Z,80.4041
2024-04-01T03:13:10.034Z,81.1323
2024-04-01T03:14:10.998Z,81.6859
2024-04-01T03:15:12.131Z,82.3147
2024-04-01T03:16:13.243Z,82.6906
2024-04-01T03:17:14.344Z,83.1175
2024-04-01T03:18:15.455Z,83.6657
2024-04-01T03:19:16.405Z,83.8458
2024-04-01T03:20:17.405Z,83.6169
2024-04-01T03:21:18.321Z,83.4761
2024-04-01T03:22:19.331Z,83.3829
2024-04-01T03:23:20.480Z,84.0178
2024-04-01T03:24:21.374Z,83.4744
2024-04-01T03:25:22.389Z,83.1141
2024-04-01T03:26:23.474Z,83.1509
2024-04-01T03:27:24.615Z,83.6107
2024-04-01T03:28:25.743Z,83.3611
2024-04-01T03:29:26.851Z,83.7910
2024-04-01T03:30:28.123Z,83.7899
2024-04-01T03:31:29.073Z,84.1837
2024-04-01T03:32:30.201Z,84.5060
2024-04-01T03:33:31.271Z,84.6201
2024-04-01T03:34:32.382Z,84.9289
2024-04-01T03:35:33.344Z,84.9690
2024-04-01T03:36:34.361Z,84.9408
2024-04-01T03:37:35.501Z,85.4357
2024-04-01T03:38:36.602Z,85.4924
2024-04-01T03:39:37.718Z,85.7441
2024-04-01T03:40:38.832Z,85.8842
2024-04-01T03:41:40.729Z,85.9777
2024-04-01T03:42:42.042Z,86.2893
2024-04-01T03:43:43.194Z,86.3460
2024-04-01T03:44:44.299Z,86.5678
2024-04-01T03:45:45.412Z,86.2607
2024-04-01T03:46:46.523Z,86.2423
2024-04-01T03:47:47.610Z,86.3436
2024-04-01T03:48:48.763Z,86.3891
2024-04-01T03:49:49.883Z,86.5691
2024-04-01T03:50:50.985Z,86.4719
2024-04-01T03:51:52.115Z,86.3750
2024-04-01T03:52:53.248Z,86.2083
2024-04-01T03:53:54.290Z,86.2770
2024-04-01T03:54:55.503Z,86.4002
2024-04-01T03:55:56.570Z,86.3718
2024-04-01T03:56:57.721Z,86.1700
2024-04-01T03:57:58.834Z,85.9778
2024-04-01T03:58:59.959Z,85.8789
2024-04-01T04:00:01.047Z,86.2559
2024-04-01T04:01:02.206Z,86.2105
2024-04-01T04:02:03.330Z,85.5893
2024-04-01T04:03:04.458Z,85.6175
2024-04-01T04:04:05.546Z,85.7670
2024-04-01T04:05:06.696Z,85.8978
2024-04-01T04:06:07.816Z,85.9577
2024-04-01T04:07:08.979Z,85.5617
2024-04-01T04:08:10.020Z,85.0193
2024-04-01T04:09:11.175Z,84.6586
2024-04-01T04:10:12.287Z,84.3470
2024-04-01T04:11:13.386Z,84.5611
2024-04-01T04:12:14.518Z,84.6765
2024-04-01T04:13:15.691Z,84.6660
2024-04-01T04:14:16.767Z,85.5863
2024-04-01T04:15:17.887Z,85.6552
2024-04-01T04:16:19.012Z,86.3145
2024-04-01T04:17:20.133Z,86.8225
2024-04-01T04:18:21.256Z,87.2229
2024-04-01T04:19:22.372Z,87.4728
2024-04-01T04:20:23.490Z,88.0656
2024-04-01T04:21:24.624Z,88.3725
2024-04-01T04:22:25.734Z,88.9696
2024-04-01T04:23:26.858Z,89.0531
2024-04-01T04:24:27.985Z,89.5206
2024-04-01T04:25:29.116Z,89.6593
2024-04-01T04:26:30.202Z,89.7526
2024-04-01T04:27:31.359Z,89.4257
2024-04-01T04:28:32.441Z,87.7029
2024-04-01T04:29:33.601Z,87.3191
2024-04-01T04:30:34.689Z,88.0176
2024-04-01T04:31:35.798Z,88.6808
2024-04-01T04:32:36.889Z,88.4817
2024-04-01T04:33:38.042Z,87.6391
2024-04-01T04:34:39.154Z,88.2531
2024-04-01T04:35:40.286Z,88.6248
2024-04-01T04:36:41.399Z,89.1560
2024-04-01T04:37:42.566Z,88.7391
2024-04-01T04:38:43.607Z,89.7088
2024-04-01T04:39:44.723Z,89.3511
2024-04-01T04:40:45.886Z,89.2218
2024-04-01T04:41:47.030Z,88.1855
2024-04-01T04:42:48.121Z,88.1545
2024-04-01T04:43:49.240Z,89.3217
2024-04-01T04:44:50.364Z,89.0080
2024-04-01T04:45:51.516Z,89.5321
2024-04-01T04:46:52.580Z,89.4642
2024-04-01T04:47:53.764Z,89.1219
2024-04-01T04:48:54.840Z,89.2371
2024-04-01T04:49:55.972Z,89.2085
2024-04-01T04:50:57.034Z,89.3632
2024-04-01T04:51:58.002Z,89.7847
2024-04-01T04:52:59.021Z,90.7847
2024-04-01T04:54:00.160Z,89.5508
2024-04-01T04:55:01.251Z,91.1401
2024-04-01T04:56:02.365Z,91.4288
2024-04-01T04:57:03.475Z,90.3686
2024-04-01T04:58:04.613Z,90.1315
2024-04-01T04:59:05.727Z,90.5941
2024-04-01T05:00:06.852Z,91.1470
2024-04-01T05:01:07.987Z,90.2764
2024-04-01T05:02:09.081Z,91.2512
2024-04-01T05:03:10.172Z,90.8522
2024-04-01T05:04:11.313Z,90.9335
2024-04-01T05:05:12.463Z,90.7873
2024-04-01T05:06:13.517Z,91.7302
2024-04-01T05:07:14.541Z,91.2906
2024-04-01T05:08:15.486Z,91.4391
2024-04-01T05:09:16.601Z,91.7526
2024-04-01T05:10:17.753Z,91.7328
2024-04-01T05:11:18.845Z,91.2883
2024-04-01T05:12:19.965Z,91.4414
2024-04-01T05:13:21.086Z,91.0936
2024-04-01T05:14:22.174Z,90.7710
2024-04-01T05:15:23.286Z,91.7323
2024-04-01T05:16:24.443Z,92.4240
2024-04-01T05:17:25.565Z,92.0689
2024-04-01T05:18:26.651Z,92.3820
2024-04-01T05:19:27.803Z,91.9979
2024-04-01T05:20:28.945Z,91.8083
2024-04-01T05:21:30.033Z,91.3129
2024-04-01T05:22:31.112Z,91.4661
2024-04-01T05:23:32.270Z,91.5015
2024-04-01T05:24:33.243Z,91.6585
2024-04-01T05:25:34.266Z,90.6922
2024-04-01T05:26:35.337Z,90.5105
2024-04-01T05:27:36.438Z,90.9021
2024-04-01T05:28:37.562Z,89.9170
2024-04-01T05:29:38.682Z,90.8027
2024-04-01T05:30:39.822Z,89.6511
2024-04-01T05:31:40.913Z,89.6424
2024-04-01T05:32:42.113Z,90.8607
2024-04-01T05:33:43.206Z,90.9677
2024-04-01T05:34:44.293Z,91.2499
2024-04-01T05:35:45.402Z,91.3503
2024-04-01T05:36:46.542Z,89.8645
2024-04-01T05:37:47.628Z,90.1625
2024-04-01T05:38:48.726Z,89.4456
2024-04-01T05:39:49.877Z,89.0558
2024-04-01T05:40:51.007Z,88.9158
2024-04-01T05:41:52.082Z,89.1234
2024-04-01T05:42:53.252Z,89.3831
2024-04-01T05:43:54.373Z,89.5706
2024-04-01T05:44:55.492Z,88.7736
2024-04-01T05:45:56.600Z,89.2129
2024-04-01T05:46:57.745Z,88.2672
2024-04-01T05:47:58.839Z,87.8199
2024-04-01T05:48:59.965Z,88.2299
2024-04-01T05:50:01.079Z,88.9926
2024-04-01T05:51:02.211Z,89.1113
2024-04-01T05:52:03.318Z,87.9921
2024-04-01T05:53:04.421Z,87.3803
2024-04-01T05:54:05.588Z,87.1363
2024-04-01T05:55:06.692Z,87.4749
2024-04-01T05:56:07.756Z,88.1865
2024-04-01T05:57:08.916Z,87.2409
2024-04-01T05:58:10.014Z,86.0297
2024-04-01T05:59:11.178Z,87.0268
2024-04-01T06:00:12.280Z,86.5905
2024-04-01T06:01:13.404Z,86.3753
2024-04-01T06:02:14.546Z,87.2797
2024-04-01T06:03:15.691Z,86.8252
2024-04-01T06:04:16.776Z,87.5452
2024-04-01T06:05:17.850Z,85.3084
2024-04-01T06:06:18.992Z,85.7903
2024-04-01T06:07:20.133Z,86.1463
2024-04-01T06:08:21.237Z,86.8174
2024-04-01T06:09:22.344Z,88.8236
2024-04-01T06:10:23.485Z,86.2345
2024-04-01T06:11:24.629Z,84.3253
2024-04-01T06:12:25.676Z,83.2449
2024-04-01T06:13:26.838Z,83.0959
2024-04-01T06:14:29.510Z,83.5552
2024-04-01T06:15:29.375Z,84.5443
2024-04-01T06:16:30.556Z,84.8817
2024-04-01T06:17:31.657Z,84.0142
2024-04-01T06:18:32.671Z,87.9086
2024-04-01T06:19:33.731Z,83.3752
2024-04-01T06:20:34.683Z,82.2078
2024-04-01T06:21:35.822Z,81.9232
2024-04-01T06:22:36.941Z,82.2805
2024-04-01T06:23:38.040Z,82.8697
2024-04-01T06:24:39.161Z,82.2731
2024-04-01T06:25:40.296Z,82.1685
2024-04-01T06:26:41.539Z,82.7648
2024-04-01T06:27:42.595Z,81.4159
2024-04-01T06:28:43.641Z,80.4251
2024-04-01T06:29:44.716Z,79.2665
2024-04-01T06:30:45.965Z,80.8564
2024-04-01T06:31:46.971Z,80.1615
2024-04-01T06:32:48.132Z,79.7636
2024-04-01T06:33:49.237Z,80.7520
2024-04-01T06:34:50.359Z,80.7617
2024-04-01T06:35:51.511Z,80.7868
2024-04-01T06:36:52.600Z,81.2464
2024-04-01T06:37:53.743Z,81.7835
2024-04-01T06:38:54.846Z,81.4169
2024-04-01T06:39:55.978Z,83.2928
2024-04-01T06:40:57.080Z,84.6179
2024-04-01T06:41:58.205Z,84.9500
2024-04-01T06:42:59.306Z,82.8703
2024-04-01T06:44:00.453Z,85.4057
2024-04-01T06:45:01.578Z,84.7931
2024-04-01T06:46:02.662Z,85.6157
2024-04-01T06:47:03.801Z,84.0361
2024-04-01T06:48:04.921Z,82.9582
2024-04-01T06:49:06.045Z,83.4543
2024-04-01T06:50:07.172Z,81.6897
2024-04-01T06:51:08.285Z,81.2204
2024-04-01T06:52:09.418Z,80.3661
2024-04-01T06:53:10.515Z,81.6287
2024-04-01T06:54:11.671Z,82.4826
2024-04-01T06:55:12.771Z,82.2189
2024-04-01T06:56:13.895Z,82.1721
2024-04-01T06:57:15.003Z,81.7094
2024-04-01T06:58:16.191Z,81.7509
2024-04-01T06:59:17.216Z,80.2156
2024-04-01T07:00:18.383Z,80.4940
2024-04-01T07:01:19.485Z,81.4380
2024-04-01T07:02:20.555Z,82.0584
2024-04-01T07:03:21.725Z,81.6605
2024-04-01T07:04:22.819Z,81.4656
2024-04-01T07:05:23.968Z,80.9955
2024-04-01T07:06:25.093Z,80.6036
2024-04-01T07:07:26.044Z,80.7523
2024-04-01T07:08:27.094Z,80.7908
2024-04-01T07:09:28.132Z,81.1375
2024-04-01T07:10:29.289Z,80.4501
2024-04-01T07:11:30.368Z,79.6236
2024-04-01T07:12:31.495Z,79.1537
2024-04-01T07:13:32.654Z,78.1060
2024-04-01T07:14:33.726Z,78.4492
2024-04-01T07:15:34.863Z,79.0312
2024-04-01T07:16:35.976Z,79.5026
2024-04-01T07:17:37.105Z,80.6832
2024-04-01T07:18:38.198Z,80.0662
2024-04-01T07:19:39.272Z,80.9867
2024-04-01T07:20:40.496Z,80.1218
2024-04-01T07:21:41.519Z,79.3449
2024-04-01T07:22:42.543Z,78.7133
2024-04-01T07:23:43.563Z,78.4517
2024-04-01T07:24:44.617Z,78.4174
2024-04-01T07:25:45.737Z,78.9853
2024-04-01T07:26:46.846Z,79.5317
2024-04-01T07:27:48.088Z,79.8407
2024-04-01T07:28:49.084Z,78.7360
2024-04-01T07:29:50.260Z,78.2633
2024-04-01T07:30:51.319Z,78.2618
2024-04-01T07:31:52.436Z,77.9774
2024-04-01T07:32:55.062Z,77.8350
2024-04-01T07:33:54.056Z,77.7946
2024-04-01T07:34:55.167Z,78.2817
2024-04-01T07:35:56.285Z,77.7120
2024-04-01T07:36:57.402Z,78.1490
2024-04-01T07:37:58.627Z,77.5837
2024-04-01T07:38:59.709Z,76.8690
2024-04-01T07:40:00.770Z,77.3664
2024-04-01T07:41:01.893Z,76.5150
2024-04-01T07:42:03.013Z,78.3514
2024-04-01T07:43:04.124Z,78.9623
2024-04-01T07:44:05.244Z,79.0494
2024-04-01T07:45:06.364Z,78.0799
2024-04-01T07:46:07.544Z,77.5716
2024-04-01T07:47:08.619Z,77.3394
2024-04-01T07:48:09.786Z,78.3561
2024-04-01T07:49:10.903Z,77.8236
2024-04-01T07:50:11.987Z,77.0267
2024-04-01T07:51:13.083Z,77.9083
2024-04-01T07:52:14.268Z,77.7121
2024-04-01T07:53:16.360Z,77.9599
2024-04-01T07:54:16.461Z,78.5378
2024-04-01T07:55:17.639Z,78.6045
2024-04-01T07:56:18.738Z,77.8487
2024-04-01T07:57:19.820Z,78.4207
2024-04-01T07:58:20.944Z,78.2227
2024-04-01T07:59:22.115Z,78.8464
2024-04-01T08:00:23.170Z,78.6843
2024-04-01T08:01:24.272Z,78.0833
2024-04-01T08:02:25.410Z,77.8596
2024-04-01T08:03:26.583Z,76.9213
2024-04-01T08:04:27.684Z,77.1605
2024-04-01T08:05:28.823Z,77.6975
2024-04-01T08:06:29.916Z,76.4239
2024-04-01T08:07:31.013Z,76.3797
2024-04-01T08:08:32.184Z,76.1630
2024-04-01T08:09:33.299Z,75.7481
2024-04-01T08:10:34.381Z,75.8717
2024-04-01T08:11:35.547Z,76.4375
2024-04-01T08:12:36.618Z,76.7958
2024-04-01T08:13:37.750Z,77.2456
2024-04-01T08:14:38.913Z,77.1892
2024-04-01T08:15:39.971Z,76.7451
2024-04-01T08:16:41.102Z,76.2544
2024-04-01T08:17:42.257Z,76.3274
2024-04-01T08:18:43.346Z,76.0983
2024-04-01T08:19:44.500Z,76.0386
2024-04-01T08:20:45.624Z,76.1382
2024-04-01T08:21:46.699Z,75.6077
2024-04-01T08:22:47.818Z,75.3834
2024-04-01T08:23:48.987Z,75.7695
2024-04-01T08:24:50.050Z,75.7266
2024-04-01T08:25:51.244Z,75.3746
2024-04-01T08:26:52.303Z,75.1283
2024-04-01T08:27:53.372Z,75.1875
2024-04-01T08:28:54.595Z,75.5588
2024-04-01T08:29:55.673Z,74.8206
2024-04-01T08:30:56.829Z,75.5768
2024-04-01T08:31:57.898Z,74.8714
2024-04-01T08:32:59.025Z,75.2865
2024-04-01T08:34:00.149Z,75.4495
2024-04-01T08:35:01.248Z,74.1587
2024-04-01T08:36:02.421Z,74.2983
2024-04-01T08:37:03.452Z,74.4211
2024-04-01T08:38:04.652Z,73.6825
2024-04-01T08:39:05.729Z,74.1366
2024-04-01T08:40:06.896Z,74.1914
2024-04-01T08:41:08.022Z,74.3680
2024-04-01T08:42:09.105Z,74.2828
2024-04-01T08:43:10.260Z,74.0459
2024-04-01T08:44:11.375Z,73.4086
2024-04-01T08:45:12.493Z,73.7066
2024-04-01T08:46:13.606Z,73.5165
2024-04-01T08:47:14.719Z,73.1405
2024-04-01T08:48:15.836Z,72.4107
2024-04-01T08:49:16.971Z,73.1811
2024-04-01T08:50:18.109Z,72.6220
2024-04-01T08:51:19.228Z,72.6497
2024-04-01T08:52:20.348Z,72.5922
2024-04-01T08:53:21.450Z,72.9397
2024-04-01T08:54:22.545Z,71.8351
2024-04-01T08:55:23.655Z,71.9644
2024-04-01T08:56:24.754Z,72.7144
2024-04-01T08:57:25.878Z,71.5604
2024-04-01T08:58:27.081Z,72.2713
2024-04-01T08:59:28.122Z,72.1685
2024-04-01T09:00:29.272Z,72.2928
2024-04-01T09:01:30.419Z,72.4227
2024-04-01T09:02:31.536Z,71.0346
2024-04-01T09:03:32.656Z,71.1151
2024-04-01T09:04:33.756Z,70.9904
2024-04-01T09:05:34.950Z,71.9471
2024-04-01T09:06:35.983Z,71.8238
2024-04-01T09:07:37.182Z,71.9421
2024-04-01T09:08:38.269Z,71.1736
2024-04-01T09:09:39.324Z,71.6850
2024-04-01T09:10:40.599Z,72.2664
2024-04-01T09:11:41.736Z,70.8949
2024-04-01T09:12:42.841Z,71.7843
2024-04-01T09:13:43.942Z,72.0297
2024-04-01T09:14:45.216Z,71.0904
2024-04-01T09:15:46.428Z,70.8689
2024-04-01T09:16:47.559Z,70.7294
2024-04-01T09:17:48.599Z,69.8567
2024-04-01T09:18:49.774Z,70.6555
2024-04-01T09:19:50.838Z,71.2056
2024-04-01T09:20:52.025Z,70.3927
2024-04-01T09:21:53.157Z,70.6711
2024-04-01T09:22:54.254Z,70.6514
2024-04-01T09:23:56.107Z,71.0080
2024-04-01T09:24:55.836Z,71.5520
2024-04-01T09:25:56.961Z,70.2710
2024-04-01T09:26:58.137Z,69.6682
2024-04-01T09:27:59.194Z,69.5782
2024-04-01T09:29:00.338Z,69.4479
2024-04-01T09:30:01.468Z,69.5210
2024-04-01T09:31:02.560Z,69.5047
2024-04-01T09:32:03.687Z,69.6197
2024-04-01T09:33:04.823Z,70.3667
2024-04-01T09:34:05.908Z,69.3675
2024-04-01T09:35:07.015Z,69.4727
2024-04-01T09:36:08.133Z,69.7394
2024-04-01T09:37:09.297Z,69.6330
2024-04-01T09:38:10.372Z,68.3356
2024-04-01T09:39:11.551Z,69.1696
2024-04-01T09:40:12.653Z,69.9535
2024-04-01T09:41:13.753Z,70.0801
2024-04-01T09:42:14.899Z,70.0776
2024-04-01T09:43:15.985Z,70.0579
2024-04-01T09:44:17.095Z,69.6060
2024-04-01T09:45:18.242Z,70.0839
2024-04-01T09:46:19.349Z,70.8202
2024-04-01T09:47:20.540Z,69.3933
2024-04-01T09:48:21.311Z,69.0310
2024-04-01T09:49:22.475Z,69.2155
2024-04-01T09:50:23.576Z,68.4329
2024-04-01T09:51:24.863Z,69.2317
2024-04-01T09:52:26.042Z,69.3714
2024-04-01T09:53:27.088Z,68.3486
2024-04-01T09:54:28.283Z,69.3210
2024-04-01T09:55:29.512Z,69.2770
2024-04-01T09:56:30.678Z,69.3053
2024-04-01T09:57:36.648Z,68.8825
2024-04-01T09:58:31.809Z,68.9707
2024-04-01T09:59:33.036Z,68.4647
2024-04-01T10:00:34.096Z,68.5463
2024-04-01T10:01:35.180Z,68.4975
2024-04-01T10:02:36.368Z,67.9338
2024-04-01T10:03:39.323Z,68.6485
2024-04-01T10:04:38.620Z,68.5671
2024-04-01T10:05:39.734Z,70.2376
2024-04-01T10:06:40.855Z,69.6932
2024-04-01T10:07:42.061Z,70.1351
2024-04-01T10:08:43.082Z,69.8891
2024-04-01T10:09:44.215Z,69.2728
2024-04-01T10:10:45.356Z,69.6699
2024-04-01T10:11:46.498Z,68.9404
2024-04-01T10:12:47.531Z,68.8147
2024-04-01T10:13:48.632Z,68.6824
2024-04-01T10:14:49.672Z,69.1419
2024-04-01T10:15:51.388Z,68.8825
2024-04-01T10:16:52.634Z,69.3065
2024-04-01T10:17:53.694Z,69.3159
2024-04-01T10:18:54.793Z,69.8124
2024-04-01T10:19:55.895Z,68.9636
2024-04-01T10:20:56.981Z,68.8375
2024-04-01T10:21:58.101Z,69.0702
2024-04-01T10:22:59.186Z,69.0367
2024-04-01T10:24:00.283Z,68.2884
2024-04-01T10:25:01.346Z,68.9948
2024-04-01T10:26:04.055Z,67.6950
2024-04-01T10:27:03.744Z,69.2659
2024-04-01T10:28:04.863Z,69.2231
2024-04-01T10:29:05.959Z,68.2621
2024-04-01T10:30:07.087Z,68.8550
2024-04-01T10:31:08.181Z,69.6081
2024-04-01T10:32:09.307Z,70.1819
2024-04-01T10:33:10.397Z,69.2191
2024-04-01T10:34:11.485Z,69.8364
2024-04-01T10:35:12.598Z,68.9035
2024-04-01T10:36:23.650Z,68.8907
2024-04-01T10:37:15.969Z,69.4165
2024-04-01T10:38:17.073Z,69.1861
2024-04-01T10:39:18.209Z,68.2568
2024-04-01T10:40:19.287Z,69.1677
2024-04-01T10:41:20.307Z,69.1745
2024-04-01T10:42:21.382Z,69.7011
2024-04-01T10:43:22.461Z,69.5584
2024-04-01T10:44:23.580Z,68.2587
2024-04-01T10:45:24.703Z,68.3695
2024-04-01T10:46:26.583Z,68.0679
2024-04-01T10:47:26.168Z,67.8204
2024-04-01T10:48:27.236Z,67.7657
2024-04-01T10:49:28.348Z,67.9740
2024-04-01T10:50:29.418Z,69.1365
2024-04-01T10:51:30.480Z,68.6307
2024-04-01T10:52:31.596Z,68.1025
2024-04-01T10:53:32.699Z,68.3566
2024-04-01T10:54:33.803Z,67.7668
2024-04-01T10:55:34.924Z,67.0025
2024-04-01T10:56:35.984Z,67.3490
2024-04-01T10:57:37.075Z,67.3942
2024-04-01T10:58:38.176Z,67.5279
2024-04-01T10:59:39.285Z,67.0835
2024-04-01T11:00:40.405Z,67.0020
2024-04-01T11:01:41.516Z,67.2034
2024-04-01T11:02:42.584Z,68.4578
2024-04-01T11:03:43.655Z,68.1525
2024-04-01T11:04:44.735Z,69.0102
2024-04-01T11:05:45.810Z,69.0421
2024-04-01T11:06:46.951Z,68.9707
2024-04-01T11:07:48.064Z,69.7612
2024-04-01T11:08:49.178Z,68.5161
2024-04-01T11:09:50.255Z,68.0119
2024-04-01T11:10:51.337Z,68.8201
2024-04-01T11:11:52.447Z,68.2137
2024-04-01T11:12:53.529Z,67.9384
2024-04-01T11:13:54.621Z,68.0534
2024-04-01T11:14:56.721Z,69.0757
2024-04-01T11:15:57.839Z,68.9543
2024-04-01T11:16:58.953Z,68.1352
2024-04-01T11:18:00.184Z,68.5253
2024-04-01T11:19:01.269Z,68.9802
2024-04-01T11:20:02.384Z,69.7827
2024-04-01T11:21:03.435Z,69.6315
2024-04-01T11:22:04.548Z,68.7994
2024-04-01T11:23:05.597Z,68.8898
2024-04-01T11:24:06.686Z,69.0331
2024-04-01T11:25:07.801Z,68.8629
2024-04-01T11:26:08.902Z,69.1696
2024-04-01T11:27:10.031Z,69.3882
2024-04-01T11:28:11.118Z,69.2359
2024-04-01T11:29:12.193Z,67.3524
2024-04-01T11:30:13.310Z,67.6243
2024-04-01T11:31:14.388Z,68.5725
2024-04-01T11:32:15.517Z,68.1581
2024-04-01T11:33:18.848Z,67.8338
2024-04-01T11:34:17.794Z,67.5020
2024-04-01T11:35:18.825Z,67.4610
2024-04-01T11:36:19.931Z,68.1893
2024-04-01T11:37:21.027Z,67.9782
2024-04-01T11:38:22.102Z,67.8943
2024-04-01T11:39:23.202Z,66.9649
2024-04-01T11:40:24.280Z,67.1964
2024-04-01T11:41:25.389Z,67.0311
2024-04-01T11:42:26.496Z,66.6437
2024-04-01T11:43:27.602Z,67.3556
2024-04-01T11:44:30.865Z,66.0274
2024-04-01T11:45:31.020Z,65.7394
2024-04-01T11:46:32.107Z,64.8120
2024-04-01T11:47:33.213Z,65.7376
2024-04-01T11:48:34.353Z,64.3544
2024-04-01T11:49:35.436Z,64.3126
2024-04-01T11:50:36.586Z,64.1830
2024-04-01T11:51:38.688Z,65.6914
2024-04-01T11:52:39.802Z,65.7711
2024-04-01T11:53:40.947Z,65.3489
2024-04-01T11:54:42.089Z,64.6443
2024-04-01T11:55:43.464Z,65.4626
2024-04-01T11:56:44.588Z,64.3903
2024-04-01T11:57:45.746Z,64.6002
2024-04-01T11:58:46.888Z,65.4599
2024-04-01T11:59:48.307Z,64.2755
2024-04-01T12:00:49.696Z,64.9907
2024-04-01T12:01:50.846Z,63.4602
2024-04-01T12:02:51.942Z,64.4947
2024-04-01T12:03:53.090Z,65.1207
2024-04-01T12:04:54.205Z,64.1746
2024-04-01T12:05:55.397Z,65.1271
2024-04-01T12:06:56.754Z,65.0722
2024-04-01T12:07:57.867Z,64.1249
2024-04-01T12:08:59.010Z,64.8177
2024-04-01T12:10:00.438Z,64.7990
2024-04-01T12:11:01.555Z,63.2760
2024-04-01T12:12:02.697Z,62.0906
2024-04-01T12:13:03.799Z,62.6014
2024-04-01T12:14:05.124Z,62.7896
2024-04-01T12:15:06.271Z,62.4422
2024-04-01T12:16:07.471Z,63.5495
2024-04-01T12:17:08.604Z,61.6579
2024-04-01T12:18:09.737Z,60.5877
2024-04-01T12:19:10.891Z,61.1907